createdAt,value
2023-03-29T00:00:53.198Z,649.00
2023-03-29T00:04:53.342Z,648.00
2023-03-29T00:08:53.547Z,649.00
2023-03-29T00:12:53.670Z,643.00
2023-03-29T00:16:54.210Z,639.00
2023-03-29T00:20:54.193Z,637.00
2023-03-29T00:24:54.247Z,639.00
2023-03-29T00:28:54.335Z,644.00
2023-03-29T00:32:54.741Z,642.00
2023-03-29T00:36:54.749Z,637.00
2023-03-29T00:40:54.813Z,639.00
2023-03-29T00:44:55.222Z,636.00
2023-03-29T00:48:55.170Z,633.00
2023-03-29T00:52:55.687Z,626.00
2023-03-29T00:56:55.575Z,620.00
2023-03-29T01:00:55.708Z,617.00
2023-03-29T01:04:56.217Z,614.00
2023-03-29T01:08:56.083Z,615.00
2023-03-29T01:12:56.354Z,614.00
2023-03-29T01:16:56.733Z,607.00
2023-03-29T01:20:56.739Z,606.00
2023-03-29T01:24:57.216Z,603.00
2023-03-29T01:28:57.233Z,599.00
2023-03-29T01:32:57.770Z,596.00
2023-03-29T01:36:57.738Z,596.00
2023-03-29T01:40:57.655Z,600.00
2023-03-29T01:44:58.230Z,597.00
2023-03-29T01:48:57.993Z,595.00
2023-03-29T01:52:58.252Z,590.00
2023-03-29T01:56:58.382Z,590.00
2023-03-29T02:00:58.868Z,586.00
2023-03-29T02:04:59.244Z,584.00
2023-03-29T02:08:58.976Z,582.00
2023-03-29T02:12:59.140Z,585.00
2023-03-29T02:16:59.325Z,583.00
2023-03-29T02:20:59.910Z,586.00
2023-03-29T02:24:59.742Z,581.00
2023-03-29T02:29:00.251Z,577.00
2023-03-29T02:33:00.288Z,576.00
2023-03-29T02:37:00.320Z,574.00
2023-03-29T02:41:00.906Z,573.00
2023-03-29T02:45:00.749Z,572.00
2023-03-29T02:49:01.238Z,573.00
2023-03-29T02:53:01.245Z,572.00
2023-03-29T02:57:01.426Z,574.00
2023-03-29T03:01:01.897Z,573.00
2023-03-29T03:05:02.277Z,569.00
2023-03-29T03:09:02.317Z,563.00
2023-03-29T03:13:02.184Z,566.00
2023-03-29T03:17:04.701Z,565.00
2023-03-29T03:21:02.916Z,568.00
2023-03-29T03:25:02.372Z,566.00
2023-03-29T03:29:02.274Z,562.00
2023-03-29T03:33:02.264Z,565.00
2023-03-29T03:37:02.786Z,566.00
2023-03-29T03:41:02.547Z,566.00
2023-03-29T03:45:02.283Z,562.00
2023-03-29T03:49:02.758Z,562.00
2023-03-29T03:53:02.063Z,560.00
2023-03-29T03:57:02.289Z,554.00
2023-03-29T04:01:02.901Z,554.00
2023-03-29T04:05:03.310Z,556.00
2023-03-29T04:09:02.798Z,557.00
2023-03-29T04:13:02.915Z,550.00
2023-03-29T04:17:03.295Z,548.00
2023-03-29T04:21:04.080Z,552.00
2023-03-29T04:25:03.806Z,550.00
2023-03-29T04:29:03.797Z,550.00
2023-03-29T04:33:03.976Z,547.00
2023-03-29T04:37:04.315Z,545.00
2023-03-29T04:41:04.452Z,544.00
2023-03-29T04:45:05.412Z,544.00
2023-03-29T04:49:04.711Z,546.00
2023-03-29T04:53:04.913Z,545.00
2023-03-29T04:57:05.375Z,546.00
2023-03-29T05:01:05.828Z,543.00
2023-03-29T05:05:05.324Z,539.00
2023-03-29T05:09:05.246Z,538.00
2023-03-29T05:13:12.352Z,542.00
2023-03-29T05:17:05.375Z,539.00
2023-03-29T05:21:05.411Z,539.00
2023-03-29T05:25:05.366Z,537.00
2023-03-29T05:29:05.089Z,536.00
2023-03-29T05:33:05.484Z,535.00
2023-03-29T05:37:05.357Z,534.00
2023-03-29T05:41:04.984Z,534.00
2023-03-29T05:45:05.362Z,534.00
2023-03-29T05:49:04.908Z,633.00
2023-03-29T05:53:05.812Z,734.00
2023-03-29T05:57:05.405Z,900.00
2023-03-29T06:01:04.997Z,1036.00
2023-03-29T06:05:04.839Z,1117.00
2023-03-29T06:09:04.732Z,1219.00
2023-03-29T06:13:04.903Z,1320.00
2023-03-29T06:17:04.914Z,1472.00
2023-03-29T06:21:05.100Z,1641.00
2023-03-29T06:25:04.621Z,1780.00
2023-03-29T06:29:04.909Z,1923.00
2023-03-29T06:33:05.009Z,1927.00
2023-03-29T06:37:04.906Z,2029.00
2023-03-29T06:41:05.025Z,2167.00
2023-03-29T06:45:04.499Z,2288.00
2023-03-29T06:49:04.932Z,2433.00
2023-03-29T06:53:04.915Z,2536.00
2023-03-29T06:57:04.951Z,2439.00
2023-03-29T07:01:04.844Z,831.00
2023-03-29T07:05:04.391Z,701.00
2023-03-29T07:09:04.315Z,677.00
2023-03-29T07:13:04.474Z,633.00
2023-03-29T07:17:04.417Z,615.00
2023-03-29T07:21:04.377Z,621.00
2023-03-29T07:25:04.432Z,622.00
2023-03-29T07:29:11.884Z,659.00
2023-03-29T07:33:04.558Z,641.00
2023-03-29T07:37:04.901Z,634.00
2023-03-29T07:41:04.580Z,778.00
2023-03-29T07:45:04.933Z,978.00
2023-03-29T07:49:04.406Z,1008.00
2023-03-29T07:53:04.405Z,1113.00
2023-03-29T07:57:04.343Z,1250.00
2023-03-29T08:01:04.674Z,1448.00
2023-03-29T08:05:04.438Z,1652.00
2023-03-29T08:09:04.405Z,1735.00
2023-03-29T08:13:04.418Z,1866.00
2023-03-29T08:17:04.190Z,2003.00
2023-03-29T08:21:04.803Z,2161.00
2023-03-29T08:25:04.432Z,2246.00
2023-03-29T08:29:04.412Z,2380.00
2023-03-29T08:33:04.420Z,2485.00
2023-03-29T08:37:03.928Z,2616.00
2023-03-29T08:41:04.157Z,2738.00
2023-03-29T08:45:03.913Z,2798.00
2023-03-29T08:49:03.928Z,2192.00
2023-03-29T08:53:03.943Z,2094.00
2023-03-29T08:57:03.864Z,1618.00
2023-03-29T09:01:04.098Z,1601.00
2023-03-29T09:05:04.043Z,1332.00
2023-03-29T09:09:03.934Z,1306.00
2023-03-29T09:13:03.845Z,1252.00
2023-03-29T09:17:03.947Z,1192.00
2023-03-29T09:21:04.096Z,1150.00
2023-03-29T09:25:04.016Z,1079.00
2023-03-29T09:29:04.467Z,1046.00
2023-03-29T09:33:04.175Z,975.00
2023-03-29T09:37:04.457Z,931.00
2023-03-29T09:41:04.834Z,884.00
2023-03-29T09:45:04.449Z,877.00
2023-03-29T09:49:04.429Z,865.00
2023-03-29T09:53:04.226Z,859.00
2023-03-29T09:57:04.320Z,887.00
2023-03-29T10:01:04.412Z,897.00
2023-03-29T10:05:04.132Z,914.00
2023-03-29T10:09:04.123Z,920.00
2023-03-29T10:13:04.297Z,942.00
2023-03-29T10:17:04.385Z,970.00
2023-03-29T10:21:04.700Z,1019.00
2023-03-29T10:25:04.661Z,1054.00
2023-03-29T10:29:04.694Z,1083.00
2023-03-29T10:33:04.888Z,1112.00
2023-03-29T10:37:04.841Z,1124.00
2023-03-29T10:41:05.043Z,1144.00
2023-03-29T10:45:05.522Z,1162.00
2023-03-29T10:49:05.031Z,1188.00
2023-03-29T10:53:05.063Z,1211.00
2023-03-29T10:57:05.498Z,1220.00
2023-03-29T11:01:05.864Z,1220.00
2023-03-29T11:05:05.513Z,1222.00
2023-03-29T11:09:05.145Z,1231.00
2023-03-29T11:13:05.160Z,1239.00
2023-03-29T11:17:05.519Z,1245.00
2023-03-29T11:21:10.124Z,1254.00
2023-03-29T11:25:06.161Z,1256.00
2023-03-29T11:29:05.161Z,1263.00
2023-03-29T11:33:05.210Z,1267.00
2023-03-29T11:37:05.030Z,1266.00
2023-03-29T11:41:05.193Z,1257.00
2023-03-29T11:45:05.165Z,1230.00
2023-03-29T11:49:05.116Z,1205.00
2023-03-29T11:53:05.191Z,1309.00
2023-03-29T11:57:05.167Z,1290.00
2023-03-29T12:01:05.187Z,1276.00
2023-03-29T12:05:05.179Z,1166.00
2023-03-29T12:09:05.279Z,1235.00
2023-03-29T12:13:05.513Z,1225.00
2023-03-29T12:17:05.641Z,1176.00
2023-03-29T12:21:05.712Z,1182.00
2023-03-29T12:25:05.599Z,1537.00
2023-03-29T12:29:06.025Z,1369.00
2023-03-29T12:33:05.754Z,1310.00
2023-03-29T12:37:05.738Z,1250.00
2023-03-29T12:41:05.729Z,1231.00
2023-03-29T12:45:05.707Z,1221.00
2023-03-29T12:49:05.736Z,1210.00
2023-03-29T12:53:05.768Z,1204.00
2023-03-29T12:57:05.845Z,1196.00
2023-03-29T13:01:13.036Z,1172.00
2023-03-29T13:05:05.932Z,1152.00
2023-03-29T13:09:05.897Z,1132.00
2023-03-29T13:13:05.798Z,1126.00
2023-03-29T13:17:17.712Z,1117.00
2023-03-29T13:21:06.738Z,1107.00
2023-03-29T13:25:05.732Z,1102.00
2023-03-29T13:29:05.786Z,1098.00
2023-03-29T13:33:05.921Z,1072.00
2023-03-29T13:37:06.081Z,1069.00
2023-03-29T13:41:06.214Z,1066.00
2023-03-29T13:45:06.557Z,1059.00
2023-03-29T13:49:06.549Z,1046.00
2023-03-29T13:53:06.738Z,1033.00
2023-03-29T13:57:06.912Z,1027.00
2023-03-29T14:01:07.027Z,1018.00
2023-03-29T14:05:07.237Z,1010.00
2023-03-29T14:09:07.367Z,994.00
2023-03-29T14:13:07.593Z,991.00
2023-03-29T14:17:07.818Z,982.00
2023-03-29T14:21:08.007Z,959.00
2023-03-29T14:25:08.655Z,944.00
2023-03-29T14:29:08.580Z,939.00
2023-03-29T14:33:08.584Z,939.00
2023-03-29T14:37:08.816Z,939.00
2023-03-29T14:41:09.095Z,937.00
2023-03-29T14:45:09.151Z,929.00
2023-03-29T14:49:09.586Z,915.00
2023-03-29T14:53:09.582Z,906.00
2023-03-29T14:57:09.124Z,899.00
2023-03-29T15:01:09.090Z,897.00
2023-03-29T15:05:09.105Z,884.00
2023-03-29T15:09:08.952Z,869.00
2023-03-29T15:13:09.097Z,862.00
2023-03-29T15:17:08.904Z,850.00
2023-03-29T15:21:09.118Z,846.00
2023-03-29T15:25:09.259Z,841.00
2023-03-29T15:29:09.589Z,833.00
2023-03-29T15:33:10.180Z,829.00
2023-03-29T15:37:09.818Z,825.00
2023-03-29T15:41:10.098Z,816.00
2023-03-29T15:45:10.105Z,810.00
2023-03-29T15:49:10.273Z,809.00
2023-03-29T15:53:15.454Z,798.00
2023-03-29T15:57:11.443Z,783.00
2023-03-29T16:01:10.608Z,777.00
2023-03-29T16:05:10.599Z,771.00
2023-03-29T16:09:10.600Z,764.00
2023-03-29T16:13:10.441Z,756.00
2023-03-29T16:17:10.380Z,755.00
2023-03-29T16:21:12.231Z,749.00
2023-03-29T16:25:10.378Z,752.00
2023-03-29T16:29:10.649Z,749.00
2023-03-29T16:33:10.416Z,750.00
2023-03-29T16:37:10.404Z,753.00
2023-03-29T16:41:10.433Z,751.00
2023-03-29T16:45:10.727Z,743.00
2023-03-29T16:49:10.544Z,815.00
2023-03-29T16:53:10.508Z,897.00
2023-03-29T16:57:10.680Z,991.00
2023-03-29T17:01:10.469Z,1022.00
2023-03-29T17:05:10.642Z,1101.00
2023-03-29T17:09:10.389Z,1166.00
2023-03-29T17:13:10.338Z,1242.00
2023-03-29T17:17:10.641Z,1292.00
2023-03-29T17:21:10.284Z,1312.00
2023-03-29T17:25:10.659Z,1378.00
2023-03-29T17:29:10.194Z,1419.00
2023-03-29T17:33:10.635Z,1467.00
2023-03-29T17:37:10.108Z,1507.00
2023-03-29T17:41:10.076Z,1549.00
2023-03-29T17:45:10.156Z,1613.00
2023-03-29T17:49:09.999Z,1627.00
2023-03-29T17:53:10.164Z,1623.00
2023-03-29T17:57:09.979Z,1644.00
2023-03-29T18:01:09.963Z,1675.00
2023-03-29T18:05:09.858Z,1700.00
2023-03-29T18:09:09.903Z,1758.00
2023-03-29T18:13:10.158Z,1814.00
2023-03-29T18:17:10.201Z,1790.00
2023-03-29T18:21:10.158Z,1752.00
2023-03-29T18:25:11.273Z,1696.00
2023-03-29T18:29:10.180Z,1678.00
2023-03-29T18:33:10.697Z,1633.00
2023-03-29T18:37:10.687Z,1654.00
2023-03-29T18:41:10.699Z,1701.00
2023-03-29T18:45:10.674Z,1730.00
2023-03-29T18:49:10.520Z,1756.00
2023-03-29T18:53:10.698Z,1795.00
2023-03-29T18:57:10.461Z,1777.00
2023-03-29T19:01:10.472Z,1804.00
2023-03-29T19:05:10.709Z,1820.00
2023-03-29T19:09:10.352Z,1841.00
2023-03-29T19:13:10.709Z,1920.00
2023-03-29T19:17:10.258Z,1878.00
2023-03-29T19:21:10.705Z,1895.00
2023-03-29T19:25:10.236Z,1847.00
2023-03-29T19:29:10.444Z,1852.00
2023-03-29T19:33:10.760Z,1879.00
2023-03-29T19:37:10.686Z,1877.00
2023-03-29T19:41:10.688Z,1945.00
2023-03-29T19:45:10.267Z,1927.00
2023-03-29T19:49:10.254Z,1930.00
2023-03-29T19:53:10.703Z,2060.00
2023-03-29T19:57:10.174Z,2024.00
2023-03-29T20:01:10.141Z,1983.00
2023-03-29T20:05:10.116Z,1954.00
2023-03-29T20:09:10.231Z,1919.00
2023-03-29T20:13:10.214Z,1893.00
2023-03-29T20:17:09.984Z,1895.00
2023-03-29T20:21:10.295Z,1868.00
2023-03-29T20:25:09.903Z,1868.00
2023-03-29T20:29:09.885Z,1868.00
2023-03-29T20:33:10.212Z,1858.00
2023-03-29T20:37:10.251Z,1844.00
2023-03-29T20:41:10.214Z,1853.00
2023-03-29T20:45:09.754Z,1849.00
2023-03-29T20:49:10.206Z,1835.00
2023-03-29T20:53:10.197Z,1824.00
2023-03-29T20:57:10.282Z,1818.00
2023-03-29T21:01:10.138Z,1815.00
2023-03-29T21:05:10.236Z,1805.00
2023-03-29T21:09:10.325Z,1793.00
2023-03-29T21:13:10.760Z,1781.00
2023-03-29T21:17:10.526Z,1778.00
2023-03-29T21:21:10.670Z,1771.00
2023-03-29T21:25:11.243Z,1765.00
2023-03-29T21:29:11.043Z,1761.00
2023-03-29T21:33:11.331Z,1753.00
2023-03-29T21:37:13.382Z,1736.00
2023-03-29T21:41:11.256Z,1734.00
2023-03-29T21:45:11.227Z,1733.00
2023-03-29T21:49:11.180Z,1727.00
2023-03-29T21:53:11.280Z,1720.00
2023-03-29T21:57:11.306Z,1711.00
2023-03-29T22:01:11.160Z,1703.00
2023-03-29T22:05:11.046Z,1693.00
2023-03-29T22:09:11.270Z,1693.00
2023-03-29T22:13:11.267Z,1678.00
2023-03-29T22:17:11.755Z,1662.00
2023-03-29T22:21:11.381Z,1652.00
2023-03-29T22:25:11.739Z,1647.00
2023-03-29T22:29:11.795Z,1644.00
2023-03-29T22:33:11.290Z,1629.00
2023-03-29T22:37:11.253Z,1628.00
2023-03-29T22:41:11.252Z,1623.00
2023-03-29T22:45:11.293Z,1617.00
2023-03-29T22:49:11.252Z,1609.00
2023-03-29T22:53:11.142Z,1599.00
2023-03-29T22:57:11.184Z,1595.00
2023-03-29T23:01:11.351Z,1591.00
2023-03-29T23:05:11.261Z,1581.00
2023-03-29T23:09:11.271Z,1580.00
2023-03-29T23:13:11.347Z,1567.00
2023-03-29T23:17:11.003Z,1563.00
2023-03-29T23:21:11.294Z,1556.00
2023-03-29T23:25:11.271Z,1546.00
2023-03-29T23:29:10.895Z,1550.00
2023-03-29T23:33:11.309Z,1540.00
2023-03-29T23:37:10.799Z,1526.00
2023-03-29T23:41:11.289Z,1520.00
2023-03-29T23:45:10.782Z,1520.00
2023-03-29T23:49:10.790Z,1510.00
2023-03-29T23:53:10.652Z,1503.00
2023-03-29T23:57:10.744Z,1504.00
